Time;durP1;ratioP1;P1;durP2;ratioP2;P2;SDS_P1;SDS_P2;PMS_P1;PMS_P2;Temp;Humidity;BMP_temperature;BMP_pressure;BME280_temperature;BME280_humidity;BME280_pressure;Samples;Min_cycle;Max_cycle;Signal;HPM_P1;HPM_P2
2021/03/18 00:00:20;;;;;;;4.17;1.60;;;;;;;;;;5045594;28;20437;-60
2021/03/18 00:02:46;;;;;;;3.57;1.70;;;;;;;;;;5042625;28;20427;-60
2021/03/18 00:05:13;;;;;;;2.60;1.93;;;;;;;;;;5031104;28;20475;-60
2021/03/18 00:07:39;;;;;;;1.93;1.73;;;;;;;;;;5042977;28;20185;-60
2021/03/18 00:10:06;;;;;;;4.10;1.73;;;;;;;;;;5030945;28;20404;-61
2021/03/18 00:12:33;;;;;;;2.17;1.67;;;;;;;;;;5038732;28;20459;-61
2021/03/18 00:15:00;;;;;;;3.60;1.90;;;;;;;;;;5019046;28;20421;-61
2021/03/18 00:17:26;;;;;;;2.77;1.87;;;;;;;;;;5040502;28;20463;-60
2021/03/18 00:19:52;;;;;;;1.50;1.40;;;;;;;;;;5040336;28;20780;-61
2021/03/18 00:22:18;;;;;;;3.53;2.00;;;;;;;;;;5048519;28;20438;-61
2021/03/18 00:24:44;;;;;;;3.00;1.80;;;;;;;;;;5038937;28;20166;-61
2021/03/18 00:27:12;;;;;;;2.07;1.70;;;;;;;;;;5037728;28;20514;-61
2021/03/18 00:29:38;;;;;;;3.13;2.00;;;;;;;;;;5051087;28;20622;-63
2021/03/18 00:32:04;;;;;;;1.93;1.63;;;;;;;;;;5042953;28;20517;-61
2021/03/18 00:34:30;;;;;;;2.57;1.63;;;;;;;;;;5050673;28;20434;-63
2021/03/18 00:36:56;;;;;;;2.63;1.93;;;;;;;;;;5037502;28;20506;-60
2021/03/18 00:39:23;;;;;;;2.43;1.60;;;;;;;;;;5051005;28;20444;-61
2021/03/18 00:41:49;;;;;;;2.23;1.83;;;;;;;;;;5050696;28;20428;-61
2021/03/18 00:44:15;;;;;;;2.87;1.77;;;;;;;;;;5037862;28;20490;-60
2021/03/18 00:46:41;;;;;;;2.30;1.80;;;;;;;;;;5033544;28;20177;-61
2021/03/18 00:49:08;;;;;;;4.77;1.70;;;;;;;;;;5037169;28;20820;-61
2021/03/18 00:51:34;;;;;;;2.23;1.47;;;;;;;;;;5041268;28;20415;-62
2021/03/18 00:54:00;;;;;;;6.93;1.93;;;;;;;;;;5032661;28;20430;-60
2021/03/18 00:56:26;;;;;;;3.80;2.13;;;;;;;;;;5044920;28;20460;-61
2021/03/18 00:58:52;;;;;;;2.70;2.10;;;;;;;;;;5060758;28;20422;-60
2021/03/18 01:01:27;;;;;;;2.00;1.80;;;;;;;;;;5041721;28;20178;-61
2021/03/18 01:03:53;;;;;;;3.13;1.97;;;;;;;;;;5048706;28;20423;-61
2021/03/18 01:06:29;;;;;;;2.80;1.83;;;;;;;;;;5036335;28;20887;-61
2021/03/18 01:08:56;;;;;;;2.23;1.93;;;;;;;;;;5070367;28;20418;-61
2021/03/18 01:11:26;;;;;;;2.87;2.20;;;;;;;;;;5052845;28;20434;-60
2021/03/18 01:13:55;;;;;;;3.70;1.83;;;;;;;;;;5027987;28;20503;-60
2021/03/18 01:16:23;;;;;;;2.40;1.90;;;;;;;;;;5042570;28;20736;-60
2021/03/18 01:18:53;;;;;;;3.53;2.17;;;;;;;;;;5048897;28;20412;-62
2021/03/18 01:21:20;;;;;;;2.67;1.60;;;;;;;;;;5021290;28;20427;-60
2021/03/18 01:23:47;;;;;;;2.53;1.83;;;;;;;;;;5040008;28;20409;-60
2021/03/18 01:26:14;;;;;;;3.03;2.13;;;;;;;;;;5041568;28;20557;-61
2021/03/18 01:28:40;;;;;;;2.63;2.00;;;;;;;;;;5050059;28;20412;-61
2021/03/18 01:31:07;;;;;;;7.03;2.07;;;;;;;;;;5044564;28;20413;-61
2021/03/18 01:33:33;;;;;;;3.07;2.17;;;;;;;;;;5046969;28;20522;-61
2021/03/18 01:36:00;;;;;;;2.40;2.07;;;;;;;;;;5033503;28;20895;-61
2021/03/18 01:38:29;;;;;;;3.37;2.00;;;;;;;;;;5045696;28;20489;-61
2021/03/18 01:40:56;;;;;;;2.67;1.67;;;;;;;;;;5022240;28;20416;-61
2021/03/18 01:43:23;;;;;;;3.53;2.30;;;;;;;;;;5031750;28;20420;-60
2021/03/18 01:45:49;;;;;;;2.00;1.80;;;;;;;;;;5043540;28;21086;-60
2021/03/18 01:48:15;;;;;;;4.13;2.00;;;;;;;;;;5030629;28;20434;-62
2021/03/18 01:50:41;;;;;;;3.67;1.90;;;;;;;;;;5048308;28;20451;-61
2021/03/18 01:53:07;;;;;;;4.47;2.50;;;;;;;;;;5031940;28;20426;-60
2021/03/18 01:55:33;;;;;;;3.40;2.00;;;;;;;;;;5048392;28;20431;-62
2021/03/18 01:58:00;;;;;;;3.63;2.70;;;;;;;;;;5045787;28;20533;-62
2021/03/18 02:00:27;;;;;;;2.53;2.17;;;;;;;;;;5031419;28;20185;-61
2021/03/18 02:02:53;;;;;;;2.67;1.90;;;;;;;;;;5036964;28;20432;-60
2021/03/18 02:05:19;;;;;;;6.03;2.50;;;;;;;;;;5020067;28;20956;-60
2021/03/18 02:07:46;;;;;;;3.17;2.33;;;;;;;;;;5064415;28;20411;-60
2021/03/18 02:10:12;;;;;;;2.83;2.47;;;;;;;;;;5050134;28;20424;-61
2021/03/18 02:12:38;;;;;;;4.30;2.60;;;;;;;;;;5046153;28;20424;-60
2021/03/18 02:15:07;;;;;;;5.10;2.87;;;;;;;;;;5047366;28;20566;-62
2021/03/18 02:17:52;;;;;;;4.97;2.73;;;;;;;;;;5047692;28;20505;-60
2021/03/18 02:20:47;;;;;;;2.93;2.40;;;;;;;;;;5034226;28;20839;-60
2021/03/18 02:23:32;;;;;;;3.73;2.13;;;;;;;;;;5048556;28;20442;-62
2021/03/18 02:26:10;;;;;;;2.13;1.90;;;;;;;;;;5052409;28;20424;-60
2021/03/18 02:28:45;;;;;;;3.93;2.80;;;;;;;;;;5026831;28;20420;-61
2021/03/18 02:31:13;;;;;;;2.50;2.00;;;;;;;;;;5051748;28;20493;-60
2021/03/18 02:34:03;;;;;;;4.37;2.67;;;;;;;;;;5019509;28;20503;-60
2021/03/18 02:36:55;;;;;;;3.47;2.10;;;;;;;;;;5034013;28;20456;-61
2021/03/18 02:39:24;;;;;;;3.70;2.27;;;;;;;;;;5031368;28;20429;-60
2021/03/18 02:41:55;;;;;;;4.07;2.57;;;;;;;;;;5036302;28;20427;-60
2021/03/18 02:44:23;;;;;;;4.07;2.27;;;;;;;;;;5046350;28;20433;-61
2021/03/18 02:46:53;;;;;;;7.90;2.50;;;;;;;;;;5035698;28;20482;-60
2021/03/18 02:49:20;;;;;;;4.90;2.77;;;;;;;;;;5019748;28;20536;-60
2021/03/18 02:51:46;;;;;;;4.47;3.67;;;;;;;;;;5031170;28;20835;-60
2021/03/18 02:54:13;;;;;;;2.40;2.00;;;;;;;;;;5052490;28;20426;-61
2021/03/18 02:56:41;;;;;;;5.10;2.77;;;;;;;;;;5052356;28;20505;-60
2021/03/18 02:59:08;;;;;;;4.43;2.53;;;;;;;;;;5038786;28;20899;-60
2021/03/18 03:01:35;;;;;;;2.67;2.37;;;;;;;;;;5043120;28;20426;-60
2021/03/18 03:04:01;;;;;;;2.60;2.07;;;;;;;;;;5036108;28;20892;-61
2021/03/18 03:06:28;;;;;;;3.90;2.63;;;;;;;;;;5040653;28;20432;-60
2021/03/18 03:08:54;;;;;;;4.73;2.83;;;;;;;;;;5042360;28;20974;-60
2021/03/18 03:11:22;;;;;;;9.53;3.07;;;;;;;;;;5034610;28;20425;-61
2021/03/18 03:13:48;;;;;;;4.17;2.27;;;;;;;;;;5044472;28;20412;-61
2021/03/18 03:16:16;;;;;;;4.10;2.37;;;;;;;;;;5046021;28;20879;-60
2021/03/18 03:18:43;;;;;;;3.73;2.40;;;;;;;;;;5048985;28;20519;-61
2021/03/18 03:21:11;;;;;;;3.43;2.40;;;;;;;;;;5033181;28;20953;-61
2021/03/18 03:23:37;;;;;;;2.33;2.10;;;;;;;;;;5041287;28;20431;-61
2021/03/18 03:26:04;;;;;;;4.07;2.47;;;;;;;;;;5038003;28;20746;-60
2021/03/18 03:28:31;;;;;;;5.07;2.90;;;;;;;;;;5045960;28;20493;-63
2021/03/18 03:30:57;;;;;;;4.40;2.50;;;;;;;;;;5048047;28;20421;-61
2021/03/18 03:33:24;;;;;;;3.93;2.33;;;;;;;;;;5030452;28;20416;-60
2021/03/18 03:35:50;;;;;;;5.23;2.50;;;;;;;;;;5033937;28;20428;-61
2021/03/18 03:38:16;;;;;;;4.57;2.90;;;;;;;;;;5049245;28;20483;-61
2021/03/18 03:40:42;;;;;;;3.70;2.50;;;;;;;;;;5023385;28;20464;-60
2021/03/18 03:43:09;;;;;;;2.87;2.40;;;;;;;;;;5038849;28;20424;-60
2021/03/18 03:45:35;;;;;;;3.00;2.30;;;;;;;;;;5015884;28;20864;-60
2021/03/18 03:48:01;;;;;;;5.23;2.77;;;;;;;;;;5044596;28;20754;-60
2021/03/18 03:50:28;;;;;;;3.10;2.80;;;;;;;;;;5054131;28;20458;-60
2021/03/18 03:53:05;;;;;;;3.90;2.70;;;;;;;;;;5064279;28;20419;-60
2021/03/18 03:55:39;;;;;;;3.17;2.37;;;;;;;;;;5053067;28;20428;-62
2021/03/18 03:58:11;;;;;;;3.57;2.57;;;;;;;;;;5039021;28;20474;-62
2021/03/18 04:00:40;;;;;;;2.83;2.50;;;;;;;;;;5033472;28;20496;-60
2021/03/18 04:03:07;;;;;;;4.90;2.60;;;;;;;;;;5015379;28;20871;-63
2021/03/18 04:05:36;;;;;;;6.40;3.10;;;;;;;;;;5032527;28;20404;-60
2021/03/18 04:08:02;;;;;;;4.27;2.40;;;;;;;;;;5041672;28;20436;-60
2021/03/18 04:10:30;;;;;;;2.83;2.27;;;;;;;;;;5033570;28;20425;-60
2021/03/18 04:12:57;;;;;;;3.47;2.63;;;;;;;;;;5041502;28;20468;-61
2021/03/18 04:15:24;;;;;;;4.07;3.17;;;;;;;;;;5042424;28;20501;-60
2021/03/18 04:17:51;;;;;;;3.20;2.40;;;;;;;;;;5027813;28;20478;-60
2021/03/18 04:20:18;;;;;;;4.10;2.37;;;;;;;;;;5050378;28;20414;-60
2021/03/18 04:22:46;;;;;;;5.30;2.87;;;;;;;;;;5038317;28;20506;-60
2021/03/18 04:25:13;;;;;;;5.30;2.87;;;;;;;;;;5050993;28;20410;-60
2021/03/18 04:27:40;;;;;;;3.33;2.57;;;;;;;;;;5043525;28;20436;-60
2021/03/18 04:30:09;;;;;;;4.10;2.50;;;;;;;;;;5045275;28;20433;-60
2021/03/18 04:32:35;;;;;;;4.97;2.90;;;;;;;;;;5035493;28;20934;-60
2021/03/18 04:35:01;;;;;;;4.73;2.70;;;;;;;;;;5037014;28;20431;-61
2021/03/18 04:37:28;;;;;;;5.73;2.73;;;;;;;;;;5023328;28;20835;-60
2021/03/18 04:39:54;;;;;;;6.13;2.90;;;;;;;;;;5049838;28;20966;-60
2021/03/18 04:42:21;;;;;;;6.73;3.63;;;;;;;;;;5037190;28;20437;-60
2021/03/18 04:44:47;;;;;;;4.53;2.90;;;;;;;;;;5031546;28;20439;-61
2021/03/18 04:47:17;;;;;;;3.73;2.40;;;;;;;;;;5042665;28;20450;-60
2021/03/18 04:49:45;;;;;;;6.70;2.93;;;;;;;;;;5050835;28;20455;-60
2021/03/18 04:52:14;;;;;;;3.40;2.90;;;;;;;;;;5047807;28;20430;-59
2021/03/18 04:54:40;;;;;;;4.20;2.67;;;;;;;;;;5030684;28;20421;-61
2021/03/18 04:57:07;;;;;;;4.23;2.57;;;;;;;;;;5032492;28;20460;-63
2021/03/18 04:59:33;;;;;;;4.43;2.67;;;;;;;;;;5040909;28;20875;-60
2021/03/18 05:02:00;;;;;;;4.03;3.20;;;;;;;;;;5041326;28;20841;-60
2021/03/18 05:04:26;;;;;;;4.13;3.00;;;;;;;;;;5030376;28;20485;-60
2021/03/18 05:06:53;;;;;;;3.00;2.60;;;;;;;;;;5034820;28;20810;-60
2021/03/18 05:09:20;;;;;;;3.90;2.33;;;;;;;;;;5050649;28;20756;-60
2021/03/18 05:11:46;;;;;;;5.37;3.00;;;;;;;;;;5058418;28;20434;-60
2021/03/18 05:14:13;;;;;;;2.87;2.37;;;;;;;;;;5041937;28;20486;-60
2021/03/18 05:16:40;;;;;;;3.33;2.50;;;;;;;;;;5024369;28;20534;-60
2021/03/18 05:19:09;;;;;;;3.90;2.77;;;;;;;;;;5041572;28;20503;-60
2021/03/18 05:21:36;;;;;;;4.33;2.63;;;;;;;;;;5019537;28;20539;-60
2021/03/18 05:24:04;;;;;;;4.20;2.53;;;;;;;;;;5049423;28;20404;-61
2021/03/18 05:26:30;;;;;;;4.20;2.93;;;;;;;;;;5024875;28;20512;-60
2021/03/18 05:28:56;;;;;;;3.10;2.60;;;;;;;;;;5049689;28;20408;-61
2021/03/18 05:31:23;;;;;;;4.83;2.67;;;;;;;;;;5022459;28;20428;-61
2021/03/18 05:33:50;;;;;;;3.30;2.50;;;;;;;;;;5043425;28;20565;-60
2021/03/18 05:36:17;;;;;;;4.20;2.67;;;;;;;;;;5050009;28;20428;-63
2021/03/18 05:38:43;;;;;;;3.63;2.70;;;;;;;;;;5036109;28;20456;-61
2021/03/18 05:41:09;;;;;;;4.23;2.57;;;;;;;;;;5035343;28;20427;-60
2021/03/18 05:43:35;;;;;;;2.93;2.57;;;;;;;;;;5041485;28;20449;-60
2021/03/18 05:46:02;;;;;;;4.23;2.93;;;;;;;;;;5035792;28;20459;-60
2021/03/18 05:48:29;;;;;;;5.40;2.67;;;;;;;;;;5038233;28;20421;-60
2021/03/18 05:50:55;;;;;;;3.50;2.73;;;;;;;;;;5046142;28;20630;-60
2021/03/18 05:53:23;;;;;;;5.50;2.80;;;;;;;;;;5042210;28;20497;-60
2021/03/18 05:55:50;;;;;;;4.07;2.93;;;;;;;;;;5036224;28;21004;-59
2021/03/18 05:58:16;;;;;;;4.60;2.87;;;;;;;;;;5037563;28;20460;-60
2021/03/18 06:00:42;;;;;;;4.97;2.97;;;;;;;;;;5038951;28;21036;-61
2021/03/18 06:03:08;;;;;;;3.57;2.60;;;;;;;;;;5018810;28;20473;-60
2021/03/18 06:05:35;;;;;;;5.00;3.20;;;;;;;;;;5031714;28;20854;-60
2021/03/18 06:08:01;;;;;;;2.43;2.23;;;;;;;;;;5048815;28;20416;-60
2021/03/18 06:10:27;;;;;;;3.23;2.40;;;;;;;;;;5048465;28;20467;-60
2021/03/18 06:12:54;;;;;;;3.83;2.77;;;;;;;;;;5039681;28;20428;-60
2021/03/18 06:15:21;;;;;;;3.83;2.70;;;;;;;;;;5024607;28;20427;-60
2021/03/18 06:17:48;;;;;;;3.10;2.63;;;;;;;;;;5039652;28;20605;-61
2021/03/18 06:20:15;;;;;;;4.10;2.77;;;;;;;;;;5053049;28;20419;-60
2021/03/18 06:22:42;;;;;;;4.03;2.43;;;;;;;;;;5059906;28;20412;-60
2021/03/18 06:25:23;;;;;;;6.83;3.77;;;;;;;;;;5049127;28;20894;-61
2021/03/18 06:27:49;;;;;;;6.83;2.97;;;;;;;;;;5049218;28;20415;-60
2021/03/18 06:30:16;;;;;;;5.70;2.53;;;;;;;;;;5041661;28;20454;-61
2021/03/18 06:32:42;;;;;;;3.87;2.97;;;;;;;;;;5050410;28;20844;-60
2021/03/18 06:35:11;;;;;;;3.93;2.93;;;;;;;;;;5049104;28;20510;-60
2021/03/18 06:37:37;;;;;;;4.93;2.93;;;;;;;;;;5049068;28;20243;-62
2021/03/18 06:40:06;;;;;;;5.40;2.80;;;;;;;;;;5031018;28;20420;-61
2021/03/18 06:42:33;;;;;;;4.03;2.67;;;;;;;;;;5031921;28;20185;-60
2021/03/18 06:45:04;;;;;;;3.87;2.83;;;;;;;;;;5040143;28;20409;-60
2021/03/18 06:47:44;;;;;;;3.10;2.60;;;;;;;;;;5037965;28;20428;-60
2021/03/18 06:50:10;;;;;;;4.27;2.80;;;;;;;;;;5046792;28;20436;-61
2021/03/18 06:52:37;;;;;;;4.10;2.80;;;;;;;;;;5061580;28;20436;-60
2021/03/18 06:55:03;;;;;;;4.57;2.83;;;;;;;;;;5057361;28;20419;-61
2021/03/18 06:57:30;;;;;;;3.90;3.10;;;;;;;;;;5052891;28;20550;-60
2021/03/18 06:59:56;;;;;;;7.30;2.93;;;;;;;;;;5068784;28;20415;-62
2021/03/18 07:02:22;;;;;;;5.13;3.30;;;;;;;;;;5048475;28;20427;-60
2021/03/18 07:04:49;;;;;;;5.17;3.07;;;;;;;;;;5052239;28;20914;-61
2021/03/18 07:07:16;;;;;;;4.87;3.60;;;;;;;;;;5052816;28;20817;-61
2021/03/18 07:09:43;;;;;;;3.60;2.87;;;;;;;;;;5054493;28;20429;-60
2021/03/18 07:12:11;;;;;;;4.47;2.90;;;;;;;;;;5055732;28;20424;-60
2021/03/18 07:14:45;;;;;;;3.47;2.40;;;;;;;;;;5034322;28;20562;-60
2021/03/18 07:17:20;;;;;;;5.20;3.57;;;;;;;;;;5046332;28;20559;-60
2021/03/18 07:19:46;;;;;;;4.83;3.43;;;;;;;;;;5034995;28;20397;-61
2021/03/18 07:22:19;;;;;;;4.43;3.37;;;;;;;;;;5035967;28;20479;-61
2021/03/18 07:24:52;;;;;;;6.00;3.20;;;;;;;;;;5052225;28;20419;-61
2021/03/18 07:27:18;;;;;;;5.13;3.00;;;;;;;;;;5051971;28;20443;-63
2021/03/18 07:29:45;;;;;;;5.50;3.23;;;;;;;;;;5052239;28;21198;-60
2021/03/18 07:32:11;;;;;;;4.40;3.13;;;;;;;;;;5043835;28;20431;-61
2021/03/18 07:34:38;;;;;;;6.83;3.17;;;;;;;;;;5043399;28;20428;-61
2021/03/18 07:37:04;;;;;;;5.90;4.13;;;;;;;;;;5037017;28;20533;-61
2021/03/18 07:39:30;;;;;;;4.00;3.33;;;;;;;;;;5052746;28;20451;-63
2021/03/18 07:41:57;;;;;;;3.93;3.40;;;;;;;;;;5053619;28;20941;-61
2021/03/18 07:44:24;;;;;;;4.53;4.03;;;;;;;;;;5072602;28;20889;-62
2021/03/18 07:46:50;;;;;;;3.90;3.40;;;;;;;;;;5062229;28;20526;-60
2021/03/18 07:49:19;;;;;;;8.87;3.90;;;;;;;;;;5018088;28;20544;-60
2021/03/18 07:51:46;;;;;;;5.30;3.30;;;;;;;;;;5034050;28;20412;-60
2021/03/18 07:54:14;;;;;;;6.40;3.50;;;;;;;;;;5034640;28;20795;-60
2021/03/18 07:56:45;;;;;;;4.53;3.60;;;;;;;;;;5052028;28;20418;-61
2021/03/18 07:59:11;;;;;;;5.20;4.07;;;;;;;;;;5049223;28;20580;-60
2021/03/18 08:01:37;;;;;;;5.83;4.40;;;;;;;;;;5051807;28;20521;-61
2021/03/18 08:04:05;;;;;;;8.67;3.57;;;;;;;;;;5051150;28;20412;-61
2021/03/18 08:06:40;;;;;;;7.63;4.23;;;;;;;;;;5033624;28;20423;-61
2021/03/18 08:09:10;;;;;;;7.00;3.97;;;;;;;;;;5048318;28;20845;-62
2021/03/18 08:11:40;;;;;;;5.47;3.60;;;;;;;;;;5050174;28;20476;-61
2021/03/18 08:14:16;;;;;;;5.13;3.70;;;;;;;;;;5031584;28;20397;-61
2021/03/18 08:16:42;;;;;;;5.03;3.77;;;;;;;;;;5032171;28;20407;-61
2021/03/18 08:19:15;;;;;;;5.47;3.77;;;;;;;;;;5053348;28;20426;-61
2021/03/18 08:21:43;;;;;;;5.93;3.90;;;;;;;;;;5040645;28;20419;-60
2021/03/18 08:24:16;;;;;;;5.67;4.07;;;;;;;;;;5051610;28;20396;-61
2021/03/18 08:26:43;;;;;;;6.27;4.40;;;;;;;;;;5032677;28;20411;-61
2021/03/18 08:29:14;;;;;;;9.13;4.40;;;;;;;;;;5050985;28;20435;-61
2021/03/18 08:31:46;;;;;;;6.50;4.40;;;;;;;;;;5052500;28;20416;-61
2021/03/18 08:34:13;;;;;;;5.33;4.43;;;;;;;;;;5044876;28;20610;-61
2021/03/18 08:36:40;;;;;;;5.50;4.33;;;;;;;;;;5051134;28;20810;-63
2021/03/18 08:39:13;;;;;;;3.93;3.53;;;;;;;;;;5051257;28;20848;-60
2021/03/18 08:41:39;;;;;;;9.17;5.03;;;;;;;;;;5049594;28;20412;-61
2021/03/18 08:44:17;;;;;;;8.20;5.20;;;;;;;;;;5055492;28;20431;-61
2021/03/18 08:46:51;;;;;;;6.00;4.50;;;;;;;;;;5050068;28;20631;-60
2021/03/18 08:49:18;;;;;;;6.40;4.77;;;;;;;;;;5050105;28;20448;-61
2021/03/18 08:51:47;;;;;;;6.70;4.77;;;;;;;;;;5050065;28;20904;-64
2021/03/18 08:54:33;;;;;;;10.87;4.80;;;;;;;;;;5032459;28;20499;-59
2021/03/18 08:56:59;;;;;;;7.30;4.23;;;;;;;;;;5051580;28;20746;-61
2021/03/18 08:59:25;;;;;;;6.97;4.90;;;;;;;;;;5050192;28;20426;-61
2021/03/18 09:02:01;;;;;;;8.10;4.73;;;;;;;;;;5035175;28;20424;-61
2021/03/18 09:04:47;;;;;;;8.60;4.83;;;;;;;;;;5061521;28;20416;-61
2021/03/18 09:07:15;;;;;;;6.83;4.73;;;;;;;;;;5066029;28;20423;-61
2021/03/18 09:09:41;;;;;;;6.13;4.40;;;;;;;;;;5069433;28;20417;-61
2021/03/18 09:12:08;;;;;;;7.07;4.70;;;;;;;;;;5046682;28;20489;-61
2021/03/18 09:14:35;;;;;;;7.30;4.60;;;;;;;;;;5049696;28;20419;-63
2021/03/18 09:17:03;;;;;;;4.97;4.00;;;;;;;;;;5049754;28;20605;-61
2021/03/18 09:19:30;;;;;;;8.20;4.93;;;;;;;;;;5051421;28;20428;-62
2021/03/18 09:21:56;;;;;;;8.87;4.53;;;;;;;;;;5053730;28;20870;-61
2021/03/18 09:24:22;;;;;;;5.93;4.33;;;;;;;;;;5060635;28;20430;-60
2021/03/18 09:26:48;;;;;;;5.40;4.10;;;;;;;;;;5048558;28;20500;-60
2021/03/18 09:29:14;;;;;;;4.43;4.03;;;;;;;;;;5058848;28;20229;-60
2021/03/18 09:31:40;;;;;;;8.20;4.13;;;;;;;;;;5059080;28;20963;-61
2021/03/18 09:34:06;;;;;;;5.57;3.70;;;;;;;;;;5041245;28;20413;-61
2021/03/18 09:36:33;;;;;;;5.37;3.70;;;;;;;;;;5032158;28;20468;-60
2021/03/18 09:39:09;;;;;;;4.43;3.37;;;;;;;;;;5049557;28;20454;-60
2021/03/18 09:41:43;;;;;;;6.83;3.80;;;;;;;;;;5048546;28;20701;-60
2021/03/18 09:44:16;;;;;;;7.23;3.67;;;;;;;;;;5031486;28;20403;-60
2021/03/18 09:46:47;;;;;;;4.33;3.10;;;;;;;;;;5052685;28;20408;-60
2021/03/18 09:49:13;;;;;;;7.53;3.53;;;;;;;;;;5031377;28;20444;-60
2021/03/18 09:51:41;;;;;;;7.13;3.47;;;;;;;;;;5052042;28;20442;-60
2021/03/18 09:54:08;;;;;;;7.40;4.10;;;;;;;;;;5031367;28;20420;-60
2021/03/18 09:56:38;;;;;;;6.43;3.30;;;;;;;;;;5048823;28;20404;-60
2021/03/18 09:59:06;;;;;;;3.87;3.10;;;;;;;;;;5049448;28;20503;-63
2021/03/18 10:01:32;;;;;;;8.80;3.40;;;;;;;;;;5049291;28;20938;-61
2021/03/18 10:04:04;;;;;;;4.73;2.90;;;;;;;;;;5040123;28;20403;-60
2021/03/18 10:06:51;;;;;;;3.87;3.47;;;;;;;;;;5051301;28;20521;-61
2021/03/18 10:09:19;;;;;;;6.10;3.27;;;;;;;;;;5029659;28;20393;-61
2021/03/18 10:11:47;;;;;;;5.07;3.23;;;;;;;;;;5029581;28;20420;-62
2021/03/18 10:14:13;;;;;;;5.17;3.53;;;;;;;;;;5011280;28;20879;-60
2021/03/18 10:16:39;;;;;;;5.17;3.17;;;;;;;;;;5012166;28;20420;-60
2021/03/18 10:19:06;;;;;;;7.47;3.33;;;;;;;;;;5049691;28;20416;-61
2021/03/18 10:21:33;;;;;;;8.37;3.70;;;;;;;;;;5049291;28;20797;-60
2021/03/18 10:23:59;;;;;;;4.30;3.43;;;;;;;;;;5035613;28;20519;-60
2021/03/18 10:26:25;;;;;;;3.00;2.70;;;;;;;;;;5049937;28;20426;-60
2021/03/18 10:29:02;;;;;;;4.77;3.20;;;;;;;;;;5053336;28;20415;-60
2021/03/18 10:31:28;;;;;;;4.73;2.80;;;;;;;;;;5053198;28;20414;-61
2021/03/18 10:33:54;;;;;;;4.67;3.57;;;;;;;;;;5052955;28;20408;-60
2021/03/18 10:36:34;;;;;;;7.73;3.00;;;;;;;;;;5038818;28;20844;-61
2021/03/18 10:39:01;;;;;;;4.90;2.70;;;;;;;;;;5015343;28;20537;-61
2021/03/18 10:41:27;;;;;;;3.53;2.63;;;;;;;;;;5055099;28;20414;-60
2021/03/18 10:43:54;;;;;;;6.40;3.30;;;;;;;;;;5053000;28;20504;-61
2021/03/18 10:46:30;;;;;;;5.17;2.80;;;;;;;;;;5057006;28;20403;-61
2021/03/18 10:48:57;;;;;;;4.00;2.60;;;;;;;;;;5053475;28;20411;-59
2021/03/18 10:51:23;;;;;;;3.13;2.77;;;;;;;;;;5051936;28;20455;-60
2021/03/18 10:53:50;;;;;;;4.40;2.37;;;;;;;;;;5034734;28;20478;-60
2021/03/18 10:56:24;;;;;;;4.13;2.20;;;;;;;;;;5034909;28;20922;-61
2021/03/18 10:58:51;;;;;;;6.27;2.87;;;;;;;;;;5052617;28;20453;-60
2021/03/18 11:01:24;;;;;;;4.50;2.57;;;;;;;;;;5034599;28;20501;-60
2021/03/18 11:03:50;;;;;;;3.57;2.50;;;;;;;;;;5032781;28;20420;-60
2021/03/18 11:06:18;;;;;;;3.63;2.33;;;;;;;;;;5056043;28;20493;-61
2021/03/18 11:08:45;;;;;;;6.90;2.17;;;;;;;;;;5053607;28;20793;-60
2021/03/18 11:11:13;;;;;;;3.17;2.00;;;;;;;;;;5050931;28;20170;-60
2021/03/18 11:13:42;;;;;;;3.20;2.13;;;;;;;;;;5033464;28;20788;-60
2021/03/18 11:16:08;;;;;;;5.03;2.00;;;;;;;;;;5034239;28;20507;-60
2021/03/18 11:18:40;;;;;;;3.83;2.03;;;;;;;;;;5051603;28;20471;-60
2021/03/18 11:21:17;;;;;;;3.10;1.70;;;;;;;;;;5051785;28;20238;-60
2021/03/18 11:23:44;;;;;;;2.23;1.93;;;;;;;;;;5051456;28;20161;-62
2021/03/18 11:26:10;;;;;;;5.23;2.00;;;;;;;;;;5039294;28;20410;-60
2021/03/18 11:28:36;;;;;;;3.50;2.20;;;;;;;;;;5050622;28;20509;-63
2021/03/18 11:31:13;;;;;;;2.13;1.67;;;;;;;;;;5031403;28;20181;-60
2021/03/18 11:33:39;;;;;;;2.33;1.63;;;;;;;;;;5030674;28;20428;-60
2021/03/18 11:36:06;;;;;;;3.30;1.73;;;;;;;;;;5023818;28;20220;-60
2021/03/18 11:38:32;;;;;;;3.17;2.30;;;;;;;;;;5042272;28;20507;-60
2021/03/18 11:40:58;;;;;;;2.50;1.90;;;;;;;;;;5033146;28;20447;-62
2021/03/18 11:43:25;;;;;;;2.33;1.73;;;;;;;;;;5033876;28;20428;-60
2021/03/18 11:45:51;;;;;;;5.83;2.37;;;;;;;;;;5052211;28;20449;-62
2021/03/18 11:48:17;;;;;;;3.77;2.30;;;;;;;;;;5051971;28;20601;-60
2021/03/18 11:50:43;;;;;;;3.53;2.33;;;;;;;;;;5065718;28;20458;-60
2021/03/18 11:53:10;;;;;;;4.17;2.47;;;;;;;;;;5057999;28;20420;-60
2021/03/18 11:55:37;;;;;;;2.60;2.40;;;;;;;;;;5063632;28;20913;-60
2021/03/18 11:58:04;;;;;;;3.53;2.57;;;;;;;;;;5057424;28;20273;-60
2021/03/18 12:00:31;;;;;;;3.27;2.40;;;;;;;;;;5051522;28;20502;-60
2021/03/18 12:02:59;;;;;;;4.20;2.90;;;;;;;;;;5051909;28;20181;-60
2021/03/18 12:05:25;;;;;;;4.20;3.00;;;;;;;;;;5036763;28;20611;-59
2021/03/18 12:07:51;;;;;;;5.57;3.20;;;;;;;;;;5060407;28;20554;-59
2021/03/18 12:10:17;;;;;;;4.60;2.73;;;;;;;;;;5050786;28;20403;-60
2021/03/18 12:12:44;;;;;;;5.67;2.80;;;;;;;;;;5051915;28;20682;-59
2021/03/18 12:15:11;;;;;;;4.33;3.00;;;;;;;;;;5054973;28;20178;-60
2021/03/18 12:17:37;;;;;;;4.33;2.80;;;;;;;;;;5042866;28;20234;-60
2021/03/18 12:20:04;;;;;;;4.30;2.77;;;;;;;;;;5050897;28;20169;-60
2021/03/18 12:22:30;;;;;;;4.97;3.40;;;;;;;;;;5051175;28;20181;-60
2021/03/18 12:24:57;;;;;;;3.33;3.00;;;;;;;;;;5031865;28;20192;-61
2021/03/18 12:27:23;;;;;;;4.43;3.23;;;;;;;;;;5060983;28;20173;-59
2021/03/18 12:29:49;;;;;;;3.90;3.13;;;;;;;;;;5054820;28;20456;-60
2021/03/18 12:32:15;;;;;;;6.37;3.37;;;;;;;;;;5064457;28;20295;-59
2021/03/18 12:34:41;;;;;;;6.07;3.43;;;;;;;;;;5050571;28;20173;-60
2021/03/18 12:37:07;;;;;;;4.90;3.43;;;;;;;;;;5050000;28;20228;-60
2021/03/18 12:39:33;;;;;;;3.53;3.13;;;;;;;;;;5049264;28;20229;-62
2021/03/18 12:41:59;;;;;;;5.57;3.57;;;;;;;;;;5050320;28;20177;-60
2021/03/18 12:44:25;;;;;;;3.43;3.03;;;;;;;;;;5050251;28;20172;-60
2021/03/18 12:46:51;;;;;;;4.73;4.00;;;;;;;;;;5049513;28;20644;-60
2021/03/18 12:49:17;;;;;;;8.97;3.73;;;;;;;;;;5067443;28;20196;-60
2021/03/18 12:51:43;;;;;;;5.93;4.03;;;;;;;;;;5068406;28;20442;-60
2021/03/18 12:54:10;;;;;;;5.90;3.87;;;;;;;;;;5053430;28;20181;-61
2021/03/18 12:56:36;;;;;;;7.07;4.30;;;;;;;;;;5049091;28;20169;-60
2021/03/18 12:59:02;;;;;;;6.87;3.97;;;;;;;;;;5035881;28;20215;-61
2021/03/18 13:01:28;;;;;;;8.67;4.23;;;;;;;;;;5047770;28;20165;-60
2021/03/18 13:03:54;;;;;;;5.50;3.73;;;;;;;;;;5050083;28;20173;-60
2021/03/18 13:06:20;;;;;;;4.57;3.60;;;;;;;;;;5051886;28;20281;-60
2021/03/18 13:08:46;;;;;;;4.63;4.20;;;;;;;;;;5049959;28;20203;-61
2021/03/18 13:11:12;;;;;;;5.00;3.73;;;;;;;;;;5057636;28;20689;-62
2021/03/18 13:13:38;;;;;;;5.63;3.53;;;;;;;;;;5034820;28;20234;-60
2021/03/18 13:16:04;;;;;;;6.33;3.37;;;;;;;;;;5050435;28;20205;-60
2021/03/18 13:18:31;;;;;;;3.50;3.13;;;;;;;;;;5061086;28;20292;-60
2021/03/18 13:20:57;;;;;;;5.30;3.30;;;;;;;;;;5051934;28;20307;-60
2021/03/18 13:23:23;;;;;;;7.93;3.20;;;;;;;;;;5056157;28;20202;-62
2021/03/18 13:25:49;;;;;;;3.50;3.20;;;;;;;;;;5061288;28;20196;-60
2021/03/18 13:28:15;;;;;;;4.53;3.50;;;;;;;;;;5050584;28;20211;-60
2021/03/18 13:30:41;;;;;;;3.10;2.90;;;;;;;;;;5058752;28;20184;-59
2021/03/18 13:33:08;;;;;;;4.87;3.60;;;;;;;;;;5057388;28;20177;-61
2021/03/18 13:35:35;;;;;;;5.70;3.37;;;;;;;;;;5062915;28;20518;-60
2021/03/18 13:38:01;;;;;;;5.50;3.20;;;;;;;;;;5056588;28;20592;-60
2021/03/18 13:40:29;;;;;;;4.97;3.47;;;;;;;;;;5049449;28;20169;-60
2021/03/18 13:42:55;;;;;;;3.23;2.93;;;;;;;;;;5031894;28;20563;-60
2021/03/18 13:45:21;;;;;;;3.90;3.17;;;;;;;;;;5031648;28;20262;-60
2021/03/18 13:47:47;;;;;;;3.83;3.53;;;;;;;;;;5055237;28;20188;-60
2021/03/18 13:50:14;;;;;;;3.57;3.27;;;;;;;;;;5070062;28;20587;-59
2021/03/18 13:52:40;;;;;;;6.77;3.40;;;;;;;;;;5034088;28;20189;-61
2021/03/18 13:55:07;;;;;;;4.50;3.10;;;;;;;;;;5049763;28;20187;-60
2021/03/18 13:57:33;;;;;;;4.77;3.37;;;;;;;;;;5035036;28;20469;-61
2021/03/18 13:59:59;;;;;;;5.00;3.10;;;;;;;;;;5037970;28;20295;-60
2021/03/18 14:02:25;;;;;;;7.07;3.33;;;;;;;;;;5047669;28;20184;-60
2021/03/18 14:04:51;;;;;;;4.23;3.07;;;;;;;;;;5049897;28;20173;-60
2021/03/18 14:07:17;;;;;;;3.97;2.97;;;;;;;;;;5024173;28;20190;-60
2021/03/18 14:09:44;;;;;;;5.53;3.63;;;;;;;;;;5024991;28;20711;-60
2021/03/18 14:12:11;;;;;;;5.50;3.33;;;;;;;;;;5021299;28;20280;-60
2021/03/18 14:14:37;;;;;;;6.57;3.83;;;;;;;;;;5034450;28;20260;-59
2021/03/18 14:17:04;;;;;;;5.80;3.40;;;;;;;;;;5024496;28;20370;-62
2021/03/18 14:19:31;;;;;;;7.10;3.70;;;;;;;;;;5045210;28;20184;-63
2021/03/18 14:21:57;;;;;;;7.93;4.27;;;;;;;;;;5013849;28;20610;-61
2021/03/18 14:24:23;;;;;;;5.23;3.47;;;;;;;;;;5035215;28;20253;-60
2021/03/18 14:26:49;;;;;;;4.70;3.07;;;;;;;;;;5042494;28;20250;-60
2021/03/18 14:29:15;;;;;;;5.87;3.30;;;;;;;;;;5033815;28;20890;-60
2021/03/18 14:31:41;;;;;;;5.27;3.73;;;;;;;;;;5040213;28;20871;-60
2021/03/18 14:34:07;;;;;;;5.73;3.47;;;;;;;;;;5040329;28;20526;-60
2021/03/18 14:36:33;;;;;;;3.37;2.97;;;;;;;;;;5020528;28;20751;-58
2021/03/18 14:38:59;;;;;;;4.20;3.13;;;;;;;;;;5036114;28;20189;-58
2021/03/18 14:41:25;;;;;;;6.07;3.53;;;;;;;;;;5046456;28;20184;-60
2021/03/18 14:43:51;;;;;;;4.83;3.17;;;;;;;;;;5041211;28;20264;-60
2021/03/18 14:46:17;;;;;;;7.07;3.70;;;;;;;;;;5020299;28;20264;-60